createdAt,value
2018-07-30T00:01:52.206Z,3.27
2018-07-30T00:06:55.750Z,4.05
2018-07-30T00:11:59.304Z,3.08
2018-07-30T00:17:03.170Z,2.87
2018-07-30T00:22:06.800Z,3.22
2018-07-30T00:27:10.253Z,5.15
2018-07-30T00:32:13.827Z,2.92
2018-07-30T00:37:18.501Z,2.70
2018-07-30T00:42:22.095Z,2.52
2018-07-30T00:47:26.948Z,4.00
2018-07-30T00:52:30.936Z,2.80
2018-07-30T00:57:35.024Z,2.90
2018-07-30T01:02:38.561Z,3.55
2018-07-30T01:07:42.175Z,2.55
2018-07-30T01:12:45.664Z,7.95
2018-07-30T01:17:49.450Z,3.98
2018-07-30T01:22:53.390Z,2.62
2018-07-30T01:27:57.112Z,3.45
2018-07-30T01:33:00.580Z,3.60
2018-07-30T01:38:04.086Z,3.10
2018-07-30T01:43:08.281Z,2.58
2018-07-30T01:48:11.873Z,2.67
2018-07-30T01:53:15.691Z,3.02
2018-07-30T01:58:19.174Z,5.12
2018-07-30T02:03:22.650Z,3.12
2018-07-30T02:08:26.341Z,4.78
2018-07-30T02:13:30.018Z,3.08
2018-07-30T02:18:33.637Z,3.98
2018-07-30T02:23:37.305Z,3.22
2018-07-30T02:28:40.838Z,3.75
2018-07-30T02:33:44.281Z,3.45
2018-07-30T02:38:47.833Z,3.35
2018-07-30T02:43:51.814Z,2.95
2018-07-30T02:48:55.500Z,3.15
2018-07-30T02:53:59.746Z,4.60
2018-07-30T02:59:03.361Z,3.77
2018-07-30T03:04:06.858Z,3.52
2018-07-30T03:09:11.825Z,3.25
2018-07-30T03:14:15.331Z,2.87
2018-07-30T03:19:18.806Z,4.97
2018-07-30T03:24:22.585Z,3.30
2018-07-30T03:29:26.038Z,4.62
2018-07-30T03:34:29.612Z,3.85
2018-07-30T03:39:33.297Z,3.95
2018-07-30T03:44:36.914Z,5.90
2018-07-30T03:49:40.833Z,3.65
2018-07-30T03:54:44.352Z,2.98
2018-07-30T03:59:47.805Z,3.20
2018-07-30T04:04:51.523Z,6.58
2018-07-30T04:09:55.505Z,8.55
2018-07-30T04:14:59.170Z,3.05
2018-07-30T04:20:02.932Z,3.10
2018-07-30T04:25:07.109Z,3.62
2018-07-30T04:30:10.666Z,4.30
2018-07-30T04:35:14.348Z,3.77
2018-07-30T04:40:17.969Z,3.37
2018-07-30T04:45:21.419Z,2.95
2018-07-30T04:50:24.919Z,3.37
2018-07-30T04:55:28.516Z,2.90
2018-07-30T05:00:32.158Z,3.37
2018-07-30T05:05:37.152Z,2.85
2018-07-30T05:10:42.196Z,3.72
2018-07-30T05:15:45.898Z,4.00
2018-07-30T05:20:49.902Z,8.03
2018-07-30T05:25:53.465Z,4.20
2018-07-30T05:30:57.118Z,6.90
2018-07-30T05:36:02.168Z,10.95
2018-07-30T05:41:05.773Z,9.45
2018-07-30T05:46:09.508Z,10.10
2018-07-30T05:51:13.046Z,6.78
2018-07-30T05:56:16.627Z,5.95
2018-07-30T06:01:20.198Z,11.25
2018-07-30T06:06:23.882Z,6.92
2018-07-30T06:11:27.511Z,3.83
2018-07-30T06:16:31.062Z,5.35
2018-07-30T06:21:34.822Z,3.65
2018-07-30T06:26:38.314Z,2.95
2018-07-30T06:31:41.786Z,3.10
2018-07-30T06:36:45.281Z,4.20
2018-07-30T06:41:49.056Z,4.37
2018-07-30T06:46:52.678Z,3.65
2018-07-30T06:51:56.186Z,3.50
2018-07-30T06:56:59.677Z,4.85
2018-07-30T07:02:03.299Z,4.00
2018-07-30T07:07:07.017Z,2.83
2018-07-30T07:12:10.509Z,3.35
2018-07-30T07:17:13.973Z,3.58
2018-07-30T07:22:17.432Z,2.98
2018-07-30T07:27:21.127Z,3.37
2018-07-30T07:32:24.734Z,3.15
2018-07-30T07:37:28.999Z,3.55
2018-07-30T07:42:32.610Z,3.25
2018-07-30T07:47:36.530Z,4.08
2018-07-30T07:52:40.341Z,2.70
2018-07-30T07:57:43.998Z,3.00
2018-07-30T08:02:47.890Z,3.05
2018-07-30T08:07:51.597Z,6.33
2018-07-30T08:12:55.345Z,3.08
2018-07-30T08:17:59.139Z,5.55
2018-07-30T08:23:02.650Z,3.05
2018-07-30T08:28:06.491Z,3.67
2018-07-30T08:33:10.172Z,2.37
2018-07-30T08:38:13.772Z,3.70
2018-07-30T08:43:17.362Z,4.70
2018-07-30T08:48:20.857Z,2.50
2018-07-30T08:53:24.781Z,2.85
2018-07-30T08:58:28.524Z,2.75
2018-07-30T09:03:32.238Z,4.50
2018-07-30T09:08:35.801Z,4.08
2018-07-30T09:13:39.586Z,5.22
2018-07-30T09:18:43.288Z,2.95
2018-07-30T09:23:46.869Z,5.83
2018-07-30T09:28:50.535Z,4.15
2018-07-30T09:33:54.317Z,4.70
2018-07-30T09:38:57.777Z,5.67
2018-07-30T09:44:01.277Z,5.80
2018-07-30T09:49:05.111Z,8.15
2018-07-30T09:54:08.811Z,5.60
2018-07-30T09:59:12.282Z,3.60
2018-07-30T10:04:16.065Z,6.00
2018-07-30T10:09:19.657Z,7.62
2018-07-30T10:14:23.485Z,3.87
2018-07-30T10:19:27.084Z,4.28
2018-07-30T10:24:30.829Z,4.08
2018-07-30T10:29:34.305Z,3.25
2018-07-30T10:34:38.408Z,5.28
2018-07-30T10:39:42.211Z,3.62
2018-07-30T10:44:45.749Z,3.22
2018-07-30T10:49:49.231Z,4.03
2018-07-30T10:54:52.856Z,5.30
2018-07-30T10:59:56.421Z,6.15
2018-07-30T11:05:00.014Z,4.23
2018-07-30T11:10:04.222Z,3.72
2018-07-30T11:15:08.083Z,3.27
2018-07-30T11:20:11.538Z,4.42
2018-07-30T11:25:15.303Z,4.73
2018-07-30T11:30:19.202Z,3.50
2018-07-30T11:35:22.893Z,3.57
2018-07-30T11:40:26.530Z,3.02
2018-07-30T11:45:30.045Z,3.37
2018-07-30T11:50:33.565Z,3.40
2018-07-30T11:55:37.172Z,3.33
2018-07-30T12:00:41.266Z,3.30
2018-07-30T12:05:45.018Z,3.55
2018-07-30T12:10:48.510Z,4.20
2018-07-30T12:15:51.988Z,4.17
2018-07-30T12:20:55.690Z,3.92
2018-07-30T12:25:59.345Z,6.95
2018-07-30T12:31:02.953Z,13.60
2018-07-30T12:36:06.689Z,4.08
2018-07-30T12:41:10.237Z,8.53
2018-07-30T12:46:13.966Z,10.32
2018-07-30T12:51:17.449Z,6.75
2018-07-30T12:56:20.961Z,4.00
2018-07-30T13:01:24.408Z,6.83
2018-07-30T13:06:27.913Z,5.75
2018-07-30T13:11:31.431Z,3.40
2018-07-30T13:16:35.205Z,10.53
2018-07-30T13:21:38.708Z,24.65
2018-07-30T13:26:42.297Z,27.45
2018-07-30T13:31:45.785Z,22.23
2018-07-30T13:36:49.389Z,25.05
2018-07-30T13:41:53.252Z,35.88
2018-07-30T13:46:56.889Z,21.33
2018-07-30T13:52:00.353Z,19.48
2018-07-30T13:57:04.126Z,18.70
2018-07-30T14:02:07.599Z,21.87
2018-07-30T14:07:11.325Z,17.17
2018-07-30T14:12:14.843Z,12.73
2018-07-30T14:17:18.786Z,14.78
2018-07-30T14:22:23.148Z,20.88
2018-07-30T14:27:27.845Z,10.93
2018-07-30T14:32:31.595Z,12.85
2018-07-30T14:37:35.137Z,10.35
2018-07-30T14:42:38.718Z,11.57
2018-07-30T14:47:42.647Z,9.40
2018-07-30T14:52:46.489Z,7.03
2018-07-30T14:57:50.026Z,6.47
2018-07-30T15:02:53.506Z,8.23
2018-07-30T15:07:57.401Z,8.25
2018-07-30T15:13:01.653Z,7.53
2018-07-30T15:18:05.658Z,4.95
2018-07-30T15:23:09.415Z,7.28
2018-07-30T15:28:13.448Z,5.80
2018-07-30T15:33:16.972Z,6.97
2018-07-30T15:38:20.541Z,5.85
2018-07-30T15:43:24.072Z,6.90
2018-07-30T15:48:27.701Z,9.68
2018-07-30T15:53:31.438Z,4.45
2018-07-30T15:58:35.050Z,5.83
2018-07-30T16:03:38.666Z,3.87
2018-07-30T16:08:42.173Z,6.40
2018-07-30T16:13:45.625Z,8.60
2018-07-30T16:18:49.102Z,11.33
2018-07-30T16:23:52.572Z,15.78
2018-07-30T16:28:56.402Z,13.68
2018-07-30T16:34:00.267Z,15.10
2018-07-30T16:39:05.490Z,11.75
2018-07-30T16:44:09.682Z,11.33
2018-07-30T16:49:13.555Z,8.45
2018-07-30T16:54:17.605Z,14.30
2018-07-30T16:59:21.740Z,6.25
2018-07-30T17:04:25.554Z,7.25
2018-07-30T17:09:29.619Z,7.33
2018-07-30T17:14:33.510Z,9.50
2018-07-30T17:19:37.149Z,6.08
2018-07-30T17:24:41.254Z,7.30
2018-07-30T17:29:45.020Z,6.78
2018-07-30T17:34:49.113Z,7.17
2018-07-30T17:39:53.594Z,6.92
2018-07-30T17:44:57.341Z,6.78
2018-07-30T17:50:01.079Z,5.03
2018-07-30T17:55:05.082Z,7.22
2018-07-30T18:00:10.006Z,6.10
2018-07-30T18:05:18.084Z,6.07
2018-07-30T18:10:25.569Z,4.58
2018-07-30T18:15:29.593Z,5.47
2018-07-30T18:20:34.134Z,7.12
2018-07-30T18:25:38.196Z,5.40
2018-07-30T18:30:42.417Z,6.08
2018-07-30T18:35:46.556Z,4.45
2018-07-30T18:40:50.608Z,5.42
2018-07-30T18:45:54.405Z,8.78
2018-07-30T18:50:58.291Z,4.97
2018-07-30T18:56:01.945Z,4.72
2018-07-30T19:01:05.662Z,3.75
2018-07-30T19:06:09.580Z,4.03
2018-07-30T19:11:13.076Z,4.90
2018-07-30T19:16:16.757Z,3.40
2018-07-30T19:21:20.542Z,6.50
2018-07-30T19:26:24.197Z,6.53
2018-07-30T19:31:27.904Z,3.92
2018-07-30T19:36:31.418Z,8.88
2018-07-30T19:41:35.127Z,5.25
2018-07-30T19:46:38.968Z,4.72
2018-07-30T19:51:42.824Z,4.67
2018-07-30T19:56:46.694Z,4.33
2018-07-30T20:01:50.545Z,3.80
2018-07-30T20:06:54.563Z,4.10
2018-07-30T20:11:58.801Z,4.00
2018-07-30T20:17:03.886Z,3.42
2018-07-30T20:22:07.446Z,9.10
2018-07-30T20:27:11.533Z,4.20
2018-07-30T20:32:15.793Z,5.00
2018-07-30T20:37:20.246Z,4.33
2018-07-30T20:42:24.783Z,3.95
2018-07-30T20:47:28.603Z,3.25
2018-07-30T20:52:32.868Z,4.20
2018-07-30T20:57:37.206Z,4.08
2018-07-30T21:02:40.765Z,3.85
2018-07-30T21:07:44.837Z,5.03
2018-07-30T21:12:48.821Z,6.42
2018-07-30T21:17:52.538Z,6.50
2018-07-30T21:22:56.263Z,4.30
2018-07-30T21:28:00.222Z,4.03
2018-07-30T21:33:03.890Z,5.47
2018-07-30T21:38:07.812Z,4.65
2018-07-30T21:43:11.309Z,5.05
2018-07-30T21:48:14.789Z,5.50
2018-07-30T21:53:18.509Z,5.12
2018-07-30T21:58:22.033Z,6.53
2018-07-30T22:03:26.149Z,3.75
2018-07-30T22:08:30.229Z,4.65
2018-07-30T22:13:33.697Z,4.67
2018-07-30T22:18:37.416Z,5.30
2018-07-30T22:23:40.962Z,6.65
2018-07-30T22:28:44.744Z,4.12
2018-07-30T22:33:48.675Z,4.45
2018-07-30T22:38:52.370Z,6.60
2018-07-30T22:43:56.115Z,5.75
2018-07-30T22:48:59.853Z,5.45
2018-07-30T22:54:03.455Z,7.12
2018-07-30T22:59:07.685Z,4.22
2018-07-30T23:04:11.377Z,5.08
2018-07-30T23:09:14.942Z,3.50
2018-07-30T23:14:18.586Z,3.83
2018-07-30T23:19:22.234Z,5.08
2018-07-30T23:24:25.741Z,3.95
2018-07-30T23:29:29.386Z,5.87
2018-07-30T23:34:33.141Z,3.42
2018-07-30T23:39:36.657Z,3.40
2018-07-30T23:44:40.121Z,4.58
2018-07-30T23:49:43.810Z,4.12
2018-07-30T23:54:47.270Z,4.47
2018-07-30T23:59:50.844Z,5.45
